Time;durP1;ratioP1;P1;durP2;ratioP2;P2;SDS_P1;SDS_P2;PMS_P1;PMS_P2;Temp;Humidity;BMP_temperature;BMP_pressure;BME280_temperature;BME280_humidity;BME280_pressure;Samples;Min_cycle;Max_cycle;Signal;HPM_P1;HPM_P2
2021/06/28 00:00:24;;;;;;;15.57;14.13;;;;;;;16.56;73.99;101541.44;4126007;28;20114;-89
2021/06/28 00:02:29;;;;;;;14.45;13.00;;;;;;;16.72;74.03;101539.00;4127776;28;20081;-89
2021/06/28 00:04:29;;;;;;;14.68;13.02;;;;;;;16.65;73.99;101549.38;4120924;28;20058;-86
2021/06/28 00:06:30;;;;;;;17.13;14.57;;;;;;;16.59;74.16;101542.91;4125739;28;20045;-91
2021/06/28 00:08:31;;;;;;;16.65;14.93;;;;;;;16.60;74.07;101563.06;4126526;28;20113;-88
2021/06/28 00:10:31;;;;;;;16.90;15.20;;;;;;;16.47;73.94;101533.81;4107582;28;20038;-87
2021/06/28 00:12:32;;;;;;;16.65;14.80;;;;;;;16.53;73.88;101530.88;4107998;28;20027;-88
2021/06/28 00:14:33;;;;;;;17.02;15.02;;;;;;;16.32;74.13;101518.56;4091247;29;20106;-93
2021/06/28 00:16:33;;;;;;;19.33;15.50;;;;;;;16.51;74.76;101552.41;4127273;28;20105;-89
2021/06/28 00:18:35;;;;;;;15.10;13.60;;;;;;;16.57;74.30;101545.03;4108259;28;20023;-90
2021/06/28 00:20:38;;;;;;;17.23;15.25;;;;;;;16.32;74.18;101532.41;4128539;28;20153;-88
2021/06/28 00:22:40;;;;;;;16.30;14.65;;;;;;;16.41;74.43;101548.59;4096673;28;20046;-90
2021/06/28 00:24:40;;;;;;;17.50;15.32;;;;;;;16.18;74.80;101517.19;4116263;28;20095;-90
2021/06/28 00:26:41;;;;;;;18.10;16.20;;;;;;;16.25;74.60;101528.09;4117173;28;20030;-90
2021/06/28 00:28:41;;;;;;;19.17;16.25;;;;;;;16.39;74.40;101533.09;4111398;28;20039;-86
2021/06/28 00:30:44;;;;;;;17.88;16.08;;;;;;;16.40;74.42;101542.22;4129286;28;20511;-89
2021/06/28 00:32:45;;;;;;;17.33;15.48;;;;;;;16.18;74.31;101519.94;4109061;28;20031;-88
2021/06/28 00:34:45;;;;;;;19.63;16.95;;;;;;;16.27;74.45;101523.19;4127708;28;20042;-86
2021/06/28 00:36:46;;;;;;;19.80;17.20;;;;;;;16.31;74.05;101524.34;4106131;28;20047;-88
2021/06/28 00:38:48;;;;;;;19.40;17.35;;;;;;;16.17;74.11;101518.25;4111533;28;20082;-88
2021/06/28 00:40:52;;;;;;;17.23;15.07;;;;;;;16.11;74.26;101500.78;4112153;28;20035;-89
2021/06/28 00:42:53;;;;;;;18.42;16.50;;;;;;;16.19;74.57;101519.72;4127559;28;20051;-89
2021/06/28 00:44:54;;;;;;;17.23;15.43;;;;;;;16.37;74.35;101539.94;4128078;28;20727;-89
2021/06/28 00:46:54;;;;;;;19.27;15.57;;;;;;;16.28;74.91;101541.41;4126121;28;20062;-89
2021/06/28 00:48:56;;;;;;;21.08;16.65;;;;;;;16.19;74.50;101516.13;4126409;28;20094;-85
2021/06/28 00:50:59;;;;;;;18.20;16.25;;;;;;;16.28;74.65;101533.13;4128499;28;20041;-89
2021/06/28 00:53:03;;;;;;;17.92;16.02;;;;;;;16.27;74.73;101521.25;4039900;28;20490;-87
2021/06/28 00:55:05;;;;;;;20.58;18.02;;;;;;;16.19;75.06;101516.13;4080322;29;20030;-87
2021/06/28 00:57:06;;;;;;;20.73;17.05;;;;;;;16.20;74.56;101502.06;4095298;28;20043;-88
2021/06/28 00:59:06;;;;;;;18.25;16.30;;;;;;;15.90;75.81;101496.72;4077253;29;20031;-88
2021/06/28 01:04:07;;;;;;;20.10;16.67;;;;;;;16.27;75.61;101528.72;4092130;28;20042;-87
2021/06/28 01:06:14;;;;;;;19.95;17.95;;;;;;;16.17;75.57;101508.06;4082913;29;20422;-84
2021/06/28 01:08:14;;;;;;;19.27;17.38;;;;;;;16.12;75.59;101491.38;4093517;29;20062;-88
2021/06/28 01:10:18;;;;;;;21.13;18.48;;;;;;;16.25;75.52;101506.00;4094293;28;20035;-88
2021/06/28 01:12:18;;;;;;;20.42;18.23;;;;;;;16.12;76.05;101507.13;4095840;28;20086;-88
2021/06/28 01:14:19;;;;;;;20.42;17.52;;;;;;;16.17;75.74;101476.84;4079356;29;20039;-86
2021/06/28 01:16:24;;;;;;;21.00;18.75;;;;;;;16.09;75.75;101493.81;4075344;29;20114;-88
2021/06/28 01:18:24;;;;;;;20.60;18.40;;;;;;;16.38;75.28;101509.31;4095368;29;20043;-88
2021/06/28 01:20:28;;;;;;;19.75;17.70;;;;;;;16.20;76.01;101492.91;4094499;29;20035;-89
2021/06/28 01:22:33;;;;;;;21.85;18.05;;;;;;;16.18;75.62;101470.25;4074917;29;20115;-87
2021/06/28 01:24:33;;;;;;;19.30;17.30;;;;;;;16.45;75.33;101497.28;4071974;29;20403;-88
2021/06/28 01:26:37;;;;;;;21.45;19.15;;;;;;;16.27;76.15;101504.69;4093191;29;20034;-88
2021/06/28 01:28:39;;;;;;;22.15;19.85;;;;;;;16.19;75.63;101482.97;4077260;29;20043;-86
2021/06/28 01:32:50;;;;;;;19.45;17.35;;;;;;;16.30;75.03;101487.59;4888872;23;20839;-88
2021/06/28 01:34:50;;;;;;;19.52;17.40;;;;;;;16.26;75.16;101493.88;4092093;28;20488;-86
2021/06/28 01:36:51;;;;;;;20.52;17.98;;;;;;;16.14;75.59;101492.00;4112905;28;20035;-86
2021/06/28 01:39:01;;;;;;;;;;;;;;;;;;;;;
2021/06/28 01:41:02;;;;;;;;;;;;;;;16.34;74.85;101487.94;4123826;28;20046;-88
2021/06/28 01:43:04;;;;;;;20.52;18.15;;;;;;;16.30;75.01;101487.59;4119471;28;20294;-90
2021/06/28 01:45:07;;;;;;;20.15;16.35;;;;;;;16.03;74.98;101457.81;4120892;28;20034;-89
2021/06/28 01:47:08;;;;;;;17.20;15.43;;;;;;;15.94;74.96;101445.47;4117616;28;20494;-85
2021/06/28 01:49:08;;;;;;;20.85;18.02;;;;;;;16.02;75.22;101469.94;4121509;28;20035;-88
2021/06/28 01:51:10;;;;;;;19.15;16.20;;;;;;;15.85;75.21;101460.72;4123652;28;20114;-86
2021/06/28 01:53:13;;;;;;;17.05;15.27;;;;;;;15.98;74.53;101468.72;4123755;28;20488;-92
2021/06/28 01:55:17;;;;;;;17.63;15.82;;;;;;;15.80;75.68;101463.38;4105761;28;20431;-89
2021/06/28 01:57:20;;;;;;;16.90;14.77;;;;;;;16.00;75.04;101472.09;4106675;28;20563;-90
2021/06/28 01:59:25;;;;;;;16.92;15.13;;;;;;;16.01;75.36;101484.81;4106936;28;20030;-88
2021/06/28 02:01:28;;;;;;;17.48;15.68;;;;;;;15.95;75.43;101480.25;4118306;28;20023;-91
2021/06/28 02:03:30;;;;;;;17.65;15.85;;;;;;;15.94;75.35;101463.94;4092334;28;20087;-88
2021/06/28 02:05:35;;;;;;;18.15;16.42;;;;;;;15.85;75.31;101460.72;4106401;28;20424;-88
2021/06/28 02:07:36;;;;;;;17.42;15.65;;;;;;;15.83;75.45;101454.59;4121284;28;20105;-88
2021/06/28 02:09:38;;;;;;;19.38;14.85;;;;;;;15.84;75.09;101454.34;4125641;28;20061;-87
2021/06/28 02:11:39;;;;;;;15.38;13.80;;;;;;;15.78;75.31;101460.03;4126244;28;20030;-87
2021/06/28 02:13:39;;;;;;;15.25;12.52;;;;;;;15.88;75.10;101482.34;4123207;28;20396;-87
2021/06/28 02:15:40;;;;;;;15.38;13.77;;;;;;;15.73;76.13;101482.78;4107336;28;20039;-90
2021/06/28 02:17:40;;;;;;;16.27;13.63;;;;;;;15.78;75.84;101491.22;4119958;28;20027;-89
2021/06/28 02:19:50;;;;;;;17.15;14.15;;;;;;;15.83;75.34;101477.53;4108727;28;20480;-89
2021/06/28 02:21:58;;;;;;;16.35;14.32;;;;;;;15.62;75.31;101461.59;4123699;28;20038;-88
2021/06/28 02:23:58;;;;;;;16.90;14.98;;;;;;;15.73;75.36;101479.22;4106141;28;20034;-93
2021/06/28 02:26:03;;;;;;;15.20;13.30;;;;;;;15.80;75.21;101475.25;4103839;28;20125;-87
2021/06/28 02:28:04;;;;;;;17.15;14.13;;;;;;;15.83;75.11;101476.69;4121357;28;20057;-88
2021/06/28 02:30:08;;;;;;;14.60;13.10;;;;;;;15.64;75.15;101446.44;4124826;28;20042;-92
2021/06/28 02:32:09;;;;;;;15.55;13.93;;;;;;;15.72;74.72;101459.03;4120293;28;20019;-91
2021/06/28 02:34:10;;;;;;;14.85;13.35;;;;;;;15.56;75.35;101449.59;4123235;28;20053;-89
2021/06/28 02:36:11;;;;;;;15.30;12.40;;;;;;;15.65;75.06;101472.97;4123188;28;20033;-87
2021/06/28 02:38:14;;;;;;;16.92;13.23;;;;;;;15.73;74.72;101471.75;4105400;28;20673;-88
2021/06/28 02:40:14;;;;;;;15.40;12.02;;;;;;;15.58;75.15;101460.38;4105715;28;20044;-89
2021/06/28 02:42:15;;;;;;;13.85;12.48;;;;;;;15.63;74.92;101452.19;4101521;28;20035;-86
2021/06/28 02:44:16;;;;;;;14.85;12.57;;;;;;;15.56;75.02;101465.31;4110166;28;20030;-87
2021/06/28 02:46:16;;;;;;;15.25;13.75;;;;;;;15.78;74.81;101501.41;4123173;28;20034;-88
2021/06/28 02:48:17;;;;;;;14.70;12.43;;;;;;;15.64;74.38;101475.97;4122554;28;20042;-87
2021/06/28 02:50:18;;;;;;;15.90;12.27;;;;;;;15.50;74.75;101486.41;4123823;28;21010;-88
2021/06/28 02:52:18;;;;;;;14.02;12.63;;;;;;;15.47;75.03;101462.06;4105421;28;20125;-86
2021/06/28 02:54:18;;;;;;;13.15;11.73;;;;;;;15.56;74.87;101485.44;4122638;28;20034;-88
2021/06/28 02:56:20;;;;;;;13.82;12.38;;;;;;;15.77;74.67;101519.06;4123903;28;20492;-87
2021/06/28 02:58:21;;;;;;;15.27;12.02;;;;;;;15.51;74.72;101488.09;4123597;28;20388;-89
2021/06/28 03:00:22;;;;;;;12.93;11.63;;;;;;;15.57;74.62;101509.22;4120014;28;20033;-89
2021/06/28 03:02:23;;;;;;;15.73;10.95;;;;;;;15.46;75.02;101493.47;4107335;28;20039;-88
2021/06/28 03:04:23;;;;;;;16.35;12.40;;;;;;;15.67;74.80;101522.41;4106879;28;20551;-87
2021/06/28 03:06:24;;;;;;;12.75;11.38;;;;;;;15.74;74.84;101538.81;4105797;28;20034;-86
2021/06/28 03:08:25;;;;;;;12.10;10.90;;;;;;;15.60;74.71;101517.00;4122170;28;20034;-87
2021/06/28 03:10:25;;;;;;;14.15;12.32;;;;;;;15.60;74.79;101505.97;4085742;28;20063;-89
2021/06/28 03:12:28;;;;;;;14.07;12.63;;;;;;;15.72;74.72;101510.63;4116419;28;20041;-87
2021/06/28 03:14:28;;;;;;;17.20;12.98;;;;;;;15.43;74.78;101480.16;4107331;28;20039;-91
2021/06/28 03:16:29;;;;;;;14.82;11.50;;;;;;;15.44;75.32;101495.66;4108092;28;20053;-91
2021/06/28 03:18:30;;;;;;;15.82;11.88;;;;;;;15.69;74.58;101495.38;4106686;28;20035;-87
2021/06/28 03:20:30;;;;;;;16.08;11.60;;;;;;;15.64;74.51;101479.56;4107821;28;20033;-89
2021/06/28 03:22:31;;;;;;;13.30;11.90;;;;;;;15.71;74.79;101487.72;4091333;28;20527;-89
2021/06/28 03:24:31;;;;;;;11.88;10.68;;;;;;;15.59;74.66;101462.88;4105293;28;20027;-88
2021/06/28 03:26:34;;;;;;;13.55;11.82;;;;;;;15.79;74.80;101500.34;4105958;28;20043;-90
2021/06/28 03:28:35;;;;;;;12.70;11.38;;;;;;;15.78;74.58;101504.19;4104579;28;20317;-90
2021/06/28 03:30:36;;;;;;;13.65;10.90;;;;;;;15.85;74.49;101504.91;4105017;28;20531;-89
2021/06/28 03:32:36;;;;;;;14.73;12.52;;;;;;;15.78;74.40;101516.06;4120273;28;20040;-89
2021/06/28 03:34:37;;;;;;;14.68;12.00;;;;;;;15.72;74.60;101488.56;4123717;28;20565;-90
2021/06/28 03:36:37;;;;;;;12.82;11.52;;;;;;;15.63;74.49;101491.69;4091030;28;20170;-90
2021/06/28 03:38:38;;;;;;;12.82;11.52;;;;;;;15.85;74.48;101502.97;4090747;29;20043;-90
2021/06/28 03:40:39;;;;;;;12.23;10.98;;;;;;;15.73;74.19;101493.00;4107463;28;20038;-89
2021/06/28 03:42:40;;;;;;;14.88;13.32;;;;;;;15.66;74.61;101480.19;4105039;28;20121;-89
2021/06/28 03:44:43;;;;;;;13.68;11.73;;;;;;;15.72;74.42;101488.56;4116386;28;20484;-88
2021/06/28 03:46:43;;;;;;;12.65;11.32;;;;;;;15.81;74.31;101509.22;4081761;28;20071;-89
2021/06/28 03:48:44;;;;;;;14.05;12.35;;;;;;;15.62;74.50;101501.03;4100052;28;20766;-88
2021/06/28 03:50:47;;;;;;;15.90;12.27;;;;;;;15.58;74.43;101480.53;4121236;28;20133;-89
2021/06/28 03:52:48;;;;;;;13.50;11.80;;;;;;;15.79;74.27;101494.81;4120421;28;20030;-91
2021/06/28 03:54:48;;;;;;;15.52;12.20;;;;;;;15.68;74.12;101466.13;4124871;28;20365;-93
2021/06/28 03:56:49;;;;;;;13.80;11.80;;;;;;;15.73;74.34;101474.50;4109189;28;20567;-91
2021/06/28 03:58:50;;;;;;;13.70;12.10;;;;;;;15.65;74.54;101472.97;4102636;28;20045;-88
2021/06/28 04:00:50;;;;;;;14.63;11.80;;;;;;;15.76;74.49;101482.31;4123968;28;20467;-88
2021/06/28 04:02:52;;;;;;;14.30;11.80;;;;;;;15.80;73.93;101469.75;4124731;28;20359;-87
2021/06/28 04:04:53;;;;;;;12.43;11.18;;;;;;;15.89;74.25;101485.94;4127471;28;20038;-86
2021/06/28 04:06:53;;;;;;;13.63;12.23;;;;;;;15.68;74.37;101455.09;4123631;28;20042;-92
2021/06/28 04:08:54;;;;;;;13.55;12.00;;;;;;;15.79;73.83;101454.25;4091727;29;20120;-89
2021/06/28 04:10:55;;;;;;;13.35;11.88;;;;;;;15.89;74.41;101489.50;4124759;28;20022;-86
2021/06/28 04:12:56;;;;;;;13.93;12.52;;;;;;;15.89;74.17;101489.50;4109052;28;20027;-87
2021/06/28 04:14:57;;;;;;;13.68;12.27;;;;;;;15.84;74.30;101487.47;4125930;28;20026;-86
2021/06/28 04:16:57;;;;;;;13.23;11.88;;;;;;;15.83;73.85;101473.91;4093639;28;20031;-88
2021/06/28 04:18:58;;;;;;;13.95;12.18;;;;;;;15.71;74.04;101468.41;4091609;29;20031;-87
2021/06/28 04:20:58;;;;;;;12.98;11.63;;;;;;;15.88;73.77;101465.78;4106365;28;20106;-89
2021/06/28 04:22:59;;;;;;;11.65;10.48;;;;;;;15.99;73.75;101477.88;4107163;28;20074;-89
2021/06/28 04:24:59;;;;;;;12.50;10.75;;;;;;;16.03;73.67;101468.00;4127678;28;20554;-86
2021/06/28 04:27:00;;;;;;;13.35;11.52;;;;;;;15.94;73.41;101461.19;4111991;28;20387;-89
2021/06/28 04:29:00;;;;;;;14.25;12.18;;;;;;;16.18;73.69;101484.06;4105169;28;20062;-88
2021/06/28 04:31:03;;;;;;;14.75;11.18;;;;;;;16.19;73.43;101460.88;4111110;28;20035;-89
2021/06/28 04:33:03;;;;;;;15.70;12.30;;;;;;;16.13;73.30;101456.34;4120019;28;20249;-92
2021/06/28 04:35:10;;;;;;;12.73;11.40;;;;;;;16.07;73.17;101460.06;4121578;28;20076;-87
2021/06/28 04:37:11;;;;;;;13.52;12.05;;;;;;;16.19;73.04;101470.00;4109188;28;20085;-89
2021/06/28 04:39:12;;;;;;;13.48;11.73;;;;;;;16.09;72.91;101455.13;4116958;28;20037;-91
2021/06/28 04:41:12;;;;;;;13.88;12.15;;;;;;;16.23;72.87;101488.84;4125566;28;20110;-92
2021/06/28 04:43:13;;;;;;;14.27;12.77;;;;;;;16.23;72.54;101453.75;4094320;28;20524;-87
2021/06/28 04:45:15;;;;;;;14.60;11.82;;;;;;;16.13;72.74;101442.53;4126992;28;20496;-88
2021/06/28 04:47:18;;;;;;;13.82;12.30;;;;;;;16.31;71.97;101450.63;4107765;28;20045;-87
2021/06/28 04:49:18;;;;;;;14.70;11.88;;;;;;;16.33;71.58;101440.16;4124500;28;20049;-89
2021/06/28 04:51:19;;;;;;;16.45;12.30;;;;;;;16.71;71.62;101482.91;4109110;28;20039;-87
2021/06/28 04:53:19;;;;;;;16.95;12.52;;;;;;;16.47;71.47;101450.91;4125674;28;20125;-88
2021/06/28 04:55:21;;;;;;;18.25;12.75;;;;;;;16.66;71.20;101463.44;4122610;28;20023;-88
2021/06/28 04:57:21;;;;;;;13.10;11.57;;;;;;;16.82;71.29;101480.28;4109238;28;20050;-91
2021/06/28 04:59:22;;;;;;;15.90;11.30;;;;;;;17.03;70.50;101459.38;4107907;28;20159;-87
2021/06/28 05:01:22;;;;;;;14.43;12.40;;;;;;;16.74;70.49;101449.22;4108718;28;20034;-89
2021/06/28 05:03:23;;;;;;;13.60;12.20;;;;;;;17.24;68.96;101460.50;4078211;29;20107;-89
2021/06/28 05:05:23;;;;;;;13.55;11.48;;;;;;;18.22;66.47;101464.66;4108966;28;20118;-89
2021/06/28 05:07:24;;;;;;;18.40;13.00;;;;;;;19.93;61.41;101482.50;4108755;28;20586;-89
2021/06/28 05:09:28;;;;;;;12.32;10.95;;;;;;;20.80;58.15;101454.91;4093875;29;20042;-94
2021/06/28 05:11:28;;;;;;;14.57;10.50;;;;;;;22.20;54.94;101455.50;4106993;28;20026;-87
2021/06/28 05:13:29;;;;;;;11.27;9.93;;;;;;;22.96;52.61;101465.31;4116225;28;20447;-94
2021/06/28 05:15:37;;;;;;;12.60;11.30;;;;;;;23.45;49.89;101441.13;4081818;29;20125;-93
2021/06/28 05:17:38;;;;;;;13.45;9.73;;;;;;;22.95;49.98;101482.34;4123633;28;20053;-86
2021/06/28 05:19:39;;;;;;;12.93;10.05;;;;;;;23.49;49.50;101486.06;4109524;28;20039;-91
2021/06/28 05:21:39;;;;;;;11.40;8.68;;;;;;;22.98;50.55;101470.59;4125601;28;20042;-88
2021/06/28 05:23:40;;;;;;;12.15;9.77;;;;;;;22.13;51.75;101472.53;4109323;28;20437;-89
2021/06/28 05:25:42;;;;;;;12.68;9.05;;;;;;;21.31;53.81;101479.16;4118304;28;20034;-88
2021/06/28 05:27:42;;;;;;;14.48;10.13;;;;;;;21.21;54.30;101484.72;4123853;28;20077;-88
2021/06/28 05:29:43;;;;;;;9.90;8.77;;;;;;;20.06;58.63;101470.03;4124468;28;20492;-89
2021/06/28 05:31:43;;;;;;;12.18;9.20;;;;;;;19.93;58.68;101472.19;4123105;28;20050;-92
2021/06/28 05:33:44;;;;;;;11.82;9.45;;;;;;;19.47;60.16;101494.13;4104453;28;20047;-90
2021/06/28 05:35:44;;;;;;;11.32;10.13;;;;;;;19.57;60.25;101496.13;4094722;28;20034;-87
2021/06/28 05:37:45;;;;;;;12.25;10.30;;;;;;;18.75;62.64;101474.09;4107694;28;20034;-89
2021/06/28 05:39:46;;;;;;;13.25;10.68;;;;;;;18.57;63.15;101471.69;4124239;28;20038;-88
2021/06/28 05:41:46;;;;;;;11.65;9.68;;;;;;;18.50;63.66;101478.28;4122004;28;20033;-88
2021/06/28 05:43:50;;;;;;;11.95;10.05;;;;;;;18.25;64.90;101491.84;4108608;28;20126;-86
2021/06/28 05:45:50;;;;;;;11.20;9.88;;;;;;;18.23;64.76;101469.06;4126223;28;20038;-88
2021/06/28 05:47:53;;;;;;;13.10;11.07;;;;;;;18.18;64.96;101476.25;4125397;28;20477;-92
2021/06/28 05:49:54;;;;;;;17.88;11.07;;;;;;;17.69;66.27;101462.34;4109544;28;20078;-93
2021/06/28 05:51:56;;;;;;;13.30;11.10;;;;;;;18.11;66.43;101486.69;4092421;29;20066;-87
2021/06/28 05:53:56;;;;;;;12.13;10.82;;;;;;;18.17;66.51;101496.72;4126769;28;20542;-91
2021/06/28 05:55:58;;;;;;;12.70;10.35;;;;;;;18.17;66.31;101477.34;4108342;28;20042;-88
2021/06/28 05:57:58;;;;;;;14.00;12.05;;;;;;;18.19;65.76;101477.06;4104546;28;20408;-88
2021/06/28 05:59:59;;;;;;;20.02;12.13;;;;;;;18.32;66.48;101486.94;4108420;28;20031;-90
2021/06/28 06:02:00;;;;;;;14.10;12.07;;;;;;;17.98;66.50;101467.66;4108126;28;20035;-87
2021/06/28 06:04:00;;;;;;;14.02;12.27;;;;;;;18.02;67.50;101454.16;4125090;28;20030;-86
2021/06/28 06:06:00;;;;;;;13.82;11.27;;;;;;;18.82;65.53;101471.94;4108818;28;20034;-86
2021/06/28 06:08:03;;;;;;;15.75;11.90;;;;;;;19.94;63.27;101484.13;4108851;28;20035;-93
2021/06/28 06:10:10;;;;;;;12.02;10.73;;;;;;;20.80;58.51;101468.84;4125346;28;20042;-90
2021/06/28 06:12:11;;;;;;;12.52;11.23;;;;;;;21.21;58.30;101465.22;4122339;28;20054;-87
2021/06/28 06:14:11;;;;;;;14.38;12.35;;;;;;;22.42;54.72;101492.16;4126019;28;20029;-87
2021/06/28 06:16:12;;;;;;;11.75;10.55;;;;;;;23.40;52.25;101477.50;4091853;28;20062;-90
2021/06/28 06:18:22;;;;;;;11.45;10.27;;;;;;;23.26;52.11;101487.66;4121552;28;20081;-94
2021/06/28 06:20:23;;;;;;;13.23;11.80;;;;;;;23.06;51.73;101478.34;4101129;28;20467;-86
2021/06/28 06:22:23;;;;;;;12.93;11.48;;;;;;;23.94;50.73;101475.47;4123014;28;20031;-86
2021/06/28 06:24:28;;;;;;;12.88;9.77;;;;;;;24.46;48.13;101463.66;4126378;28;20069;-87
2021/06/28 06:26:28;;;;;;;11.23;10.13;;;;;;;25.85;47.78;101492.94;4123309;28;20041;-89
2021/06/28 06:28:29;;;;;;;14.55;8.55;;;;;;;25.88;44.88;101471.88;4076884;29;20418;-90
2021/06/28 06:30:32;;;;;;;10.52;9.43;;;;;;;26.95;44.32;101482.59;4123373;28;20038;-94
2021/06/28 06:32:33;;;;;;;10.18;8.90;;;;;;;26.53;42.59;101479.16;4121158;28;20034;-87
2021/06/28 06:34:34;;;;;;;9.27;8.10;;;;;;;26.02;43.88;101480.28;4122134;28;20050;-87
2021/06/28 06:36:34;;;;;;;10.57;8.50;;;;;;;26.75;43.81;101480.31;4123940;28;20038;-90
2021/06/28 06:38:35;;;;;;;8.68;7.68;;;;;;;26.76;42.02;101480.00;4109131;28;20030;-89
2021/06/28 06:40:35;;;;;;;9.00;8.15;;;;;;;26.69;45.36;101459.94;4107447;28;20038;-91
2021/06/28 06:42:37;;;;;;;10.35;8.05;;;;;;;27.71;42.37;101484.56;4124834;28;20485;-90
2021/06/28 06:44:37;;;;;;;8.52;7.72;;;;;;;27.49;41.75;101473.38;4076914;28;20427;-91
2021/06/28 06:46:38;;;;;;;8.15;7.35;;;;;;;26.71;44.98;101466.09;4105872;28;20038;-91
2021/06/28 06:48:39;;;;;;;8.52;7.38;;;;;;;26.53;44.62;101462.31;4107122;28;20046;-90
2021/06/28 06:50:40;;;;;;;8.38;7.50;;;;;;;26.35;44.31;101453.72;4106593;28;20039;-87
2021/06/28 06:52:41;;;;;;;9.43;7.57;;;;;;;25.82;44.40;101457.09;4125311;28;20416;-94
2021/06/28 06:54:41;;;;;;;9.05;7.65;;;;;;;24.79;46.93;101460.91;4121337;28;20031;-85
2021/06/28 06:56:42;;;;;;;9.27;7.60;;;;;;;24.32;49.14;101436.41;4123806;28;20477;-87
2021/06/28 06:58:43;;;;;;;8.82;7.40;;;;;;;24.00;50.52;101423.16;4125935;28;20108;-87
2021/06/28 07:00:48;;;;;;;10.27;7.80;;;;;;;23.78;50.20;101438.50;4107872;28;20046;-95
2021/06/28 07:02:57;;;;;;;9.02;7.95;;;;;;;23.79;51.22;101428.16;4105996;28;20062;-95
2021/06/28 07:04:57;;;;;;;9.95;8.32;;;;;;;23.71;51.45;101445.59;4125873;28;20029;-91
2021/06/28 07:07:00;;;;;;;9.18;8.18;;;;;;;23.78;51.12;101427.31;4109220;28;20026;-94
2021/06/28 07:09:01;;;;;;;9.65;8.10;;;;;;;23.77;51.74;101434.03;4133384;28;20026;-92
2021/06/28 07:11:03;;;;;;;9.73;8.70;;;;;;;23.89;51.49;101446.78;4078682;29;20043;-90
2021/06/28 07:13:03;;;;;;;8.70;7.70;;;;;;;22.99;52.59;101435.97;4105124;28;20031;-93
2021/06/28 07:15:05;;;;;;;9.98;8.15;;;;;;;22.90;52.52;101437.72;4106554;28;20070;-91
2021/06/28 07:17:13;;;;;;;10.35;8.70;;;;;;;22.91;53.42;101422.63;4112086;28;20110;-90
2021/06/28 07:19:14;;;;;;;10.60;8.43;;;;;;;22.55;53.13;101420.94;4098143;28;20524;-91
2021/06/28 07:21:14;;;;;;;9.75;8.75;;;;;;;22.36;55.37;101419.97;4096881;29;20027;-90
2021/06/28 07:23:15;;;;;;;10.05;8.63;;;;;;;22.20;55.00;101422.84;4128698;28;20045;-90
2021/06/28 07:25:15;;;;;;;9.40;7.85;;;;;;;22.30;54.70;101449.84;4110772;28;20326;-89
2021/06/28 07:27:16;;;;;;;8.98;8.07;;;;;;;22.13;55.10;101418.72;4124669;28;20031;-92
2021/06/28 07:29:17;;;;;;;11.77;9.70;;;;;;;22.02;54.83;101417.94;4108802;28;20070;-88
2021/06/28 07:31:22;;;;;;;11.18;9.20;;;;;;;21.98;56.68;101428.00;4128861;28;20040;-95
2021/06/28 07:33:23;;;;;;;16.23;9.50;;;;;;;21.50;57.32;101451.56;4125517;28;20034;-90
2021/06/28 07:35:29;;;;;;;14.90;9.23;;;;;;;21.69;57.33;101443.41;4081241;29;20044;-91
2021/06/28 07:37:29;;;;;;;11.43;9.00;;;;;;;21.73;57.48;101441.75;4115037;28;20153;-91
2021/06/28 07:39:33;;;;;;;10.15;9.00;;;;;;;21.40;57.20;101428.47;4099243;28;20433;-92
2021/06/28 07:41:39;;;;;;;9.60;8.25;;;;;;;21.54;57.49;101423.97;4116468;28;20495;-94
2021/06/28 07:43:40;;;;;;;10.35;8.63;;;;;;;21.44;57.05;101415.63;4112111;28;20027;-90
2021/06/28 07:45:44;;;;;;;8.98;8.07;;;;;;;21.77;57.05;101441.16;4084701;29;20024;-95
2021/06/28 07:47:46;;;;;;;11.48;9.25;;;;;;;21.74;56.25;101423.06;4098397;29;20053;-91
2021/06/28 07:49:47;;;;;;;11.48;9.73;;;;;;;21.95;55.53;101421.03;4116116;28;20142;-92
2021/06/28 07:51:48;;;;;;;11.63;8.73;;;;;;;22.18;56.52;101441.84;4085710;29;20067;-89
2021/06/28 07:53:51;;;;;;;10.38;9.32;;;;;;;22.30;54.95;101416.38;4105607;28;20046;-89
2021/06/28 07:55:52;;;;;;;14.40;9.43;;;;;;;22.49;55.73;101463.94;4104449;28;20035;-88
2021/06/28 07:57:52;;;;;;;10.75;9.65;;;;;;;22.22;55.53;101461.63;4080703;29;20443;-91
2021/06/28 07:59:53;;;;;;;11.57;8.70;;;;;;;22.24;56.45;101446.28;4112855;28;20448;-90
2021/06/28 08:01:53;;;;;;;12.38;9.30;;;;;;;22.49;55.24;101474.28;4095426;29;20175;-94
2021/06/28 08:03:54;;;;;;;10.98;9.23;;;;;;;22.39;55.30;101470.44;4094606;29;20111;-89
2021/06/28 08:05:57;;;;;;;10.90;9.73;;;;;;;22.09;55.20;101460.28;4080810;29;20039;-95
2021/06/28 08:07:58;;;;;;;11.73;8.98;;;;;;;22.40;56.12;101472.09;4097857;28;20031;-89
2021/06/28 08:09:58;;;;;;;11.20;9.57;;;;;;;22.48;54.21;101458.66;4096920;29;20069;-89
2021/06/28 08:12:01;;;;;;;10.18;9.23;;;;;;;22.72;56.36;101456.00;4063070;29;20040;-86
2021/06/28 08:14:03;;;;;;;10.20;9.05;;;;;;;23.02;55.10;101473.63;4107496;28;20038;-88
2021/06/28 08:16:04;;;;;;;9.85;8.85;;;;;;;23.11;55.16;101449.53;4113967;28;20113;-89
2021/06/28 08:18:04;;;;;;;9.55;8.55;;;;;;;22.89;52.66;101456.41;4107921;28;20042;-92
2021/06/28 08:20:06;;;;;;;10.05;8.27;;;;;;;22.76;54.28;101457.09;4080426;29;20035;-92
2021/06/28 08:22:06;;;;;;;10.70;9.02;;;;;;;22.73;55.06;101446.53;4112166;28;20662;-85
2021/06/28 08:24:09;;;;;;;11.88;9.88;;;;;;;22.88;54.59;101460.34;4116861;28;20090;-94
2021/06/28 08:26:10;;;;;;;14.80;9.10;;;;;;;22.93;53.54;101463.09;4095730;28;20035;-87
2021/06/28 08:28:12;;;;;;;8.88;8.07;;;;;;;22.90;55.44;101462.84;4094162;29;20798;-87
2021/06/28 08:30:13;;;;;;;10.60;9.43;;;;;;;22.65;55.00;101450.75;4075158;29;20039;-86
2021/06/28 08:32:14;;;;;;;10.10;9.10;;;;;;;22.52;55.22;101449.41;4109842;28;20060;-92
2021/06/28 08:34:16;;;;;;;10.20;9.20;;;;;;;22.31;54.35;101457.09;4087282;28;20051;-89
2021/06/28 08:36:16;;;;;;;9.18;8.25;;;;;;;22.41;55.08;101465.38;4092928;28;20250;-93
2021/06/28 08:38:16;;;;;;;11.85;9.98;;;;;;;21.97;54.78;101474.53;4092473;28;20031;-88
2021/06/28 08:40:17;;;;;;;11.65;9.35;;;;;;;22.06;55.70;101456.13;4109744;28;20081;-91
2021/06/28 08:42:23;;;;;;;10.27;9.23;;;;;;;22.21;55.53;101440.41;4109305;28;20050;-91
2021/06/28 08:44:24;;;;;;;11.07;9.30;;;;;;;22.14;55.07;101437.94;4107453;28;20325;-90
2021/06/28 08:46:25;;;;;;;10.32;9.10;;;;;;;22.70;55.27;101473.03;4107979;28;20061;-89
2021/06/28 08:48:25;;;;;;;10.95;9.73;;;;;;;22.80;54.27;101463.75;4091382;29;20039;-85
2021/06/28 08:50:26;;;;;;;11.43;10.23;;;;;;;22.73;55.09;101438.16;4111115;28;20359;-87
2021/06/28 08:52:34;;;;;;;12.10;9.40;;;;;;;22.78;55.10;101452.06;4109723;28;20077;-89
2021/06/28 08:54:35;;;;;;;10.68;9.57;;;;;;;22.96;54.99;101447.72;4093896;28;20047;-89
2021/06/28 08:56:37;;;;;;;12.77;11.25;;;;;;;22.98;55.92;101453.84;4109047;28;20034;-91
2021/06/28 08:58:38;;;;;;;10.52;8.82;;;;;;;23.12;55.21;101449.25;4111843;28;20039;-88
2021/06/28 09:00:38;;;;;;;10.60;9.48;;;;;;;23.14;52.81;101447.00;4110398;28;20042;-87
2021/06/28 09:02:55;;;;;;;13.70;9.57;;;;;;;23.21;54.81;101448.63;4109397;28;20512;-85
2021/06/28 09:05:07;;;;;;;10.95;9.85;;;;;;;23.28;55.41;101455.53;4107375;28;20026;-89
2021/06/28 09:07:21;;;;;;;14.80;9.43;;;;;;;23.33;54.53;101463.88;4124250;28;20032;-88
2021/06/28 09:09:34;;;;;;;13.25;11.00;;;;;;;23.23;54.56;101472.31;4125085;28;20034;-88
2021/06/28 09:11:43;;;;;;;11.80;9.30;;;;;;;23.32;55.35;101469.75;4106644;28;20066;-88
2021/06/28 09:13:46;;;;;;;13.30;10.20;;;;;;;23.33;54.26;101463.06;4109299;28;20113;-88
2021/06/28 09:15:52;;;;;;;10.52;9.43;;;;;;;23.24;52.52;101462.81;4109287;28;20070;-89
2021/06/28 09:17:52;;;;;;;10.70;8.90;;;;;;;23.02;52.63;101465.25;4112922;28;20026;-90
2021/06/28 09:20:19;;;;;;;9.63;7.85;;;;;;;23.31;53.67;101479.22;4109155;28;20137;-90
2021/06/28 09:22:28;;;;;;;10.18;8.73;;;;;;;23.33;54.49;101461.09;4106711;28;20042;-90